sensor_id;sensor_type;location;lat;lon;timestamp;pressure;altitude;pressure_sealevel;temperature;humidity
27144;BME280;14672;50.250;8.312;2023-05-23T00:01:00;98711.19;;;21.76;67.72
27144;BME280;14672;50.250;8.312;2023-05-23T00:03:26;98720.63;;;21.77;67.54
27144;BME280;14672;50.250;8.312;2023-05-23T00:05:53;98718.81;;;21.74;67.04
27144;BME280;14672;50.250;8.312;2023-05-23T00:08:20;98720.47;;;21.64;67.47
27144;BME280;14672;50.250;8.312;2023-05-23T00:10:46;98715.81;;;21.55;68.37
27144;BME280;14672;50.250;8.312;2023-05-23T00:13:12;98713.41;;;21.59;67.05
27144;BME280;14672;50.250;8.312;2023-05-23T00:15:40;98719.53;;;21.50;67.13
27144;BME280;14672;50.250;8.312;2023-05-23T00:18:06;98717.97;;;21.49;67.39
27144;BME280;14672;50.250;8.312;2023-05-23T00:20:35;98715.63;;;21.47;67.04
27144;BME280;14672;50.250;8.312;2023-05-23T00:23:01;98707.22;;;21.49;66.59
27144;BME280;14672;50.250;8.312;2023-05-23T00:25:28;98716.22;;;21.40;67.13
27144;BME280;14672;50.250;8.312;2023-05-23T00:28:02;98717.28;;;21.37;68.10
27144;BME280;14672;50.250;8.312;2023-05-23T00:30:30;98709.94;;;21.36;67.69
27144;BME280;14672;50.250;8.312;2023-05-23T00:32:57;98721.28;;;21.29;68.14
27144;BME280;14672;50.250;8.312;2023-05-23T00:35:23;98714.75;;;21.23;68.29
27144;BME280;14672;50.250;8.312;2023-05-23T00:37:49;98717.13;;;21.19;68.97
27144;BME280;14672;50.250;8.312;2023-05-23T00:40:17;98719.78;;;21.17;69.01
27144;BME280;14672;50.250;8.312;2023-05-23T00:42:43;98721.09;;;21.21;68.47
27144;BME280;14672;50.250;8.312;2023-05-23T00:45:10;98722.69;;;21.11;69.59
27144;BME280;14672;50.250;8.312;2023-05-23T00:47:41;98727.66;;;21.10;69.84
27144;BME280;14672;50.250;8.312;2023-05-23T00:50:12;98720.09;;;21.13;70.00
27144;BME280;14672;50.250;8.312;2023-05-23T00:52:43;98726.38;;;21.12;69.77
27144;BME280;14672;50.250;8.312;2023-05-23T00:55:11;98724.00;;;21.16;69.61
27144;BME280;14672;50.250;8.312;2023-05-23T00:57:40;98726.88;;;21.10;69.87
27144;BME280;14672;50.250;8.312;2023-05-23T01:00:13;98731.63;;;21.07;70.52
27144;BME280;14672;50.250;8.312;2023-05-23T01:02:44;98728.47;;;21.17;70.05
27144;BME280;14672;50.250;8.312;2023-05-23T01:05:12;98732.44;;;21.14;70.17
27144;BME280;14672;50.250;8.312;2023-05-23T01:07:46;98736.88;;;21.09;69.78
27144;BME280;14672;50.250;8.312;2023-05-23T01:10:28;98737.88;;;21.23;69.13
27144;BME280;14672;50.250;8.312;2023-05-23T01:16:09;98746.31;;;21.15;69.98
27144;BME280;14672;50.250;8.312;2023-05-23T01:18:42;98747.59;;;21.20;69.62
27144;BME280;14672;50.250;8.312;2023-05-23T01:21:15;98746.31;;;21.15;69.90
27144;BME280;14672;50.250;8.312;2023-05-23T01:24:20;98745.00;;;21.16;69.34
27144;BME280;14672;50.250;8.312;2023-05-23T01:27:28;98743.41;;;21.21;68.35
27144;BME280;14672;50.250;8.312;2023-05-23T01:30:01;98748.41;;;21.20;67.51
27144;BME280;14672;50.250;8.312;2023-05-23T01:32:29;98734.00;;;21.09;67.51
27144;BME280;14672;50.250;8.312;2023-05-23T01:34:56;98739.28;;;21.05;66.89
27144;BME280;14672;50.250;8.312;2023-05-23T01:37:26;98743.44;;;21.09;66.90
27144;BME280;14672;50.250;8.312;2023-05-23T01:39:54;98739.28;;;21.05;66.18
27144;BME280;14672;50.250;8.312;2023-05-23T01:42:20;98744.53;;;21.01;66.53
27144;BME280;14672;50.250;8.312;2023-05-23T01:44:46;98743.56;;;20.87;66.53
27144;BME280;14672;50.250;8.312;2023-05-23T01:47:14;98752.78;;;20.86;66.17
27144;BME280;14672;50.250;8.312;2023-05-23T01:49:41;98741.22;;;20.86;66.72
27144;BME280;14672;50.250;8.312;2023-05-23T01:52:09;98749.63;;;20.84;65.99
27144;BME280;14672;50.250;8.312;2023-05-23T01:54:38;98744.91;;;20.81;65.83
27144;BME280;14672;50.250;8.312;2023-05-23T01:57:11;98749.94;;;20.69;66.35
27144;BME280;14672;50.250;8.312;2023-05-23T01:59:38;98761.50;;;20.63;66.42
27144;BME280;14672;50.250;8.312;2023-05-23T02:02:04;98762.63;;;20.49;66.73
27144;BME280;14672;50.250;8.312;2023-05-23T02:04:30;98759.19;;;20.51;66.48
27144;BME280;14672;50.250;8.312;2023-05-23T02:06:56;98763.66;;;20.52;66.25
27144;BME280;14672;50.250;8.312;2023-05-23T02:09:22;98767.88;;;20.45;66.78
27144;BME280;14672;50.250;8.312;2023-05-23T02:11:48;98773.66;;;20.40;66.92
27144;BME280;14672;50.250;8.312;2023-05-23T02:14:13;98766.06;;;20.31;66.52
27144;BME280;14672;50.250;8.312;2023-05-23T02:16:39;98759.75;;;20.27;66.31
27144;BME280;14672;50.250;8.312;2023-05-23T02:19:05;98763.97;;;20.26;66.15
27144;BME280;14672;50.250;8.312;2023-05-23T02:21:34;98773.41;;;20.32;65.92
27144;BME280;14672;50.250;8.312;2023-05-23T02:24:00;98776.81;;;20.25;66.00
27144;BME280;14672;50.250;8.312;2023-05-23T02:26:28;98790.75;;;20.10;66.30
27144;BME280;14672;50.250;8.312;2023-05-23T02:28:54;98775.00;;;20.11;66.18
27144;BME280;14672;50.250;8.312;2023-05-23T02:31:20;98779.22;;;20.10;66.24
27144;BME280;14672;50.250;8.312;2023-05-23T02:33:46;98784.19;;;20.04;66.28
27144;BME280;14672;50.250;8.312;2023-05-23T02:36:11;98788.66;;;20.05;65.83
27144;BME280;14672;50.250;8.312;2023-05-23T02:38:37;98795.47;;;20.02;65.74
27144;BME280;14672;50.250;8.312;2023-05-23T02:41:03;98795.19;;;20.00;65.75
27144;BME280;14672;50.250;8.312;2023-05-23T02:43:29;98808.31;;;19.95;65.91
27144;BME280;14672;50.250;8.312;2023-05-23T02:45:55;98807.25;;;19.87;65.82
27144;BME280;14672;50.250;8.312;2023-05-23T02:48:21;98814.88;;;19.90;65.91
27144;BME280;14672;50.250;8.312;2023-05-23T02:50:46;98815.13;;;19.76;66.30
27144;BME280;14672;50.250;8.312;2023-05-23T02:53:12;98815.94;;;19.71;65.80
27144;BME280;14672;50.250;8.312;2023-05-23T02:55:38;98817.75;;;19.62;66.22
27144;BME280;14672;50.250;8.312;2023-05-23T02:58:03;98809.34;;;19.64;66.27
27144;BME280;14672;50.250;8.312;2023-05-23T03:00:30;98817.47;;;19.72;65.62
27144;BME280;14672;50.250;8.312;2023-05-23T03:02:57;98808.06;;;19.65;65.56
27144;BME280;14672;50.250;8.312;2023-05-23T03:05:23;98824.25;;;19.52;65.94
27144;BME280;14672;50.250;8.312;2023-05-23T03:07:48;98820.59;;;19.51;66.18
27144;BME280;14672;50.250;8.312;2023-05-23T03:10:16;98820.88;;;19.53;65.75
27144;BME280;14672;50.250;8.312;2023-05-23T03:12:42;98822.13;;;19.41;66.51
27144;BME280;14672;50.250;8.312;2023-05-23T03:15:09;98827.16;;;19.52;66.38
27144;BME280;14672;50.250;8.312;2023-05-23T03:17:35;98822.69;;;19.51;66.42
27144;BME280;14672;50.250;8.312;2023-05-23T03:20:04;98828.47;;;19.56;65.81
27144;BME280;14672;50.250;8.312;2023-05-23T03:22:31;98826.41;;;19.62;66.09
27144;BME280;14672;50.250;8.312;2023-05-23T03:24:57;98822.69;;;19.56;66.20
27144;BME280;14672;50.250;8.312;2023-05-23T03:27:22;98824.47;;;19.37;66.16
27144;BME280;14672;50.250;8.312;2023-05-23T03:29:48;98824.72;;;19.28;66.33
27144;BME280;14672;50.250;8.312;2023-05-23T03:32:14;98833.59;;;19.24;66.07
27144;BME280;14672;50.250;8.312;2023-05-23T03:34:40;98828.41;;;19.34;65.82
27144;BME280;14672;50.250;8.312;2023-05-23T03:37:05;98843.50;;;19.12;67.22
27144;BME280;14672;50.250;8.312;2023-05-23T03:39:31;98834.91;;;19.23;66.54
27144;BME280;14672;50.250;8.312;2023-05-23T03:41:57;98837.03;;;19.29;66.59
27144;BME280;14672;50.250;8.312;2023-05-23T03:44:23;98845.41;;;19.32;66.67
27144;BME280;14672;50.250;8.312;2023-05-23T03:46:48;98849.31;;;19.18;66.33
27144;BME280;14672;50.250;8.312;2023-05-23T03:49:17;98851.72;;;19.31;66.64
27144;BME280;14672;50.250;8.312;2023-05-23T03:51:42;98843.53;;;19.18;65.97
27144;BME280;14672;50.250;8.312;2023-05-23T03:54:08;98832.75;;;19.07;65.72
27144;BME280;14672;50.250;8.312;2023-05-23T03:56:34;98842.47;;;19.10;65.13
27144;BME280;14672;50.250;8.312;2023-05-23T03:59:00;98835.38;;;19.05;64.76
27144;BME280;14672;50.250;8.312;2023-05-23T04:01:25;98850.31;;;19.09;63.88
27144;BME280;14672;50.250;8.312;2023-05-23T04:03:52;98843.72;;;19.03;64.09
27144;BME280;14672;50.250;8.312;2023-05-23T04:06:18;98850.00;;;18.96;64.87
27144;BME280;14672;50.250;8.312;2023-05-23T04:08:44;98850.50;;;18.89;65.26
27144;BME280;14672;50.250;8.312;2023-05-23T04:11:10;98839.31;;;19.08;64.48
27144;BME280;14672;50.250;8.312;2023-05-23T04:13:39;98853.44;;;19.06;64.75
27144;BME280;14672;50.250;8.312;2023-05-23T04:16:05;98858.66;;;19.02;64.65
27144;BME280;14672;50.250;8.312;2023-05-23T04:18:31;98860.19;;;18.92;64.92
27144;BME280;14672;50.250;8.312;2023-05-23T04:21:04;98858.66;;;19.02;64.35
27144;BME280;14672;50.250;8.312;2023-05-23T04:23:30;98855.03;;;19.07;64.24
27144;BME280;14672;50.250;8.312;2023-05-23T04:25:56;98867.31;;;19.07;64.56
27144;BME280;14672;50.250;8.312;2023-05-23T04:28:27;98862.34;;;19.02;63.98
27144;BME280;14672;50.250;8.312;2023-05-23T04:30:53;98857.63;;;19.05;63.44
27144;BME280;14672;50.250;8.312;2023-05-23T04:33:19;98868.38;;;19.10;64.24
27144;BME280;14672;50.250;8.312;2023-05-23T04:35:44;98874.41;;;19.12;63.51
27144;BME280;14672;50.250;8.312;2023-05-23T04:38:10;98871.56;;;19.17;63.58
27144;BME280;14672;50.250;8.312;2023-05-23T04:40:38;98869.47;;;19.18;63.87
27144;BME280;14672;50.250;8.312;2023-05-23T04:43:03;98882.31;;;19.22;63.99
27144;BME280;14672;50.250;8.312;2023-05-23T04:45:29;98874.69;;;19.19;64.00
27144;BME280;14672;50.250;8.312;2023-05-23T04:47:55;98871.56;;;19.23;63.75
27144;BME280;14672;50.250;8.312;2023-05-23T04:50:21;98876.06;;;19.30;63.75
27144;BME280;14672;50.250;8.312;2023-05-23T04:52:47;98882.59;;;19.30;63.67
27144;BME280;14672;50.250;8.312;2023-05-23T04:55:13;98885.69;;;19.21;63.66
27144;BME280;14672;50.250;8.312;2023-05-23T04:57:42;98877.09;;;19.27;63.93
27144;BME280;14672;50.250;8.312;2023-05-23T05:00:08;98884.16;;;19.31;63.33
27144;BME280;14672;50.250;8.312;2023-05-23T05:02:38;98876.28;;;19.20;63.81
27144;BME280;14672;50.250;8.312;2023-05-23T05:05:04;98887.78;;;19.20;63.63
27144;BME280;14672;50.250;8.312;2023-05-23T05:07:31;98885.75;;;19.27;63.66
27144;BME280;14672;50.250;8.312;2023-05-23T05:09:57;98887.56;;;19.35;63.13
27144;BME280;14672;50.250;8.312;2023-05-23T05:12:23;98893.22;;;19.07;63.51
27144;BME280;14672;50.250;8.312;2023-05-23T05:14:48;98901.88;;;19.07;63.19
27144;BME280;14672;50.250;8.312;2023-05-23T05:17:14;98895.38;;;19.18;63.14
27144;BME280;14672;50.250;8.312;2023-05-23T05:19:40;98893.84;;;19.28;62.21
27144;BME280;14672;50.250;8.312;2023-05-23T05:22:05;98908.19;;;19.17;62.75
27144;BME280;14672;50.250;8.312;2023-05-23T05:24:32;98891.47;;;19.21;62.24
27144;BME280;14672;50.250;8.312;2023-05-23T05:26:58;98901.16;;;19.18;62.40
27144;BME280;14672;50.250;8.312;2023-05-23T05:29:24;98902.97;;;19.21;62.41
27144;BME280;14672;50.250;8.312;2023-05-23T05:31:50;98899.06;;;19.24;61.85
27144;BME280;14672;50.250;8.312;2023-05-23T05:34:16;98909.53;;;19.27;61.88
27144;BME280;14672;50.250;8.312;2023-05-23T05:36:42;98910.59;;;19.24;61.97
27144;BME280;14672;50.250;8.312;2023-05-23T05:39:13;98907.50;;;19.33;61.74
27144;BME280;14672;50.250;8.312;2023-05-23T05:41:39;98907.75;;;19.35;61.74
27144;BME280;14672;50.250;8.312;2023-05-23T05:44:07;98922.44;;;19.37;61.71
27144;BME280;14672;50.250;8.312;2023-05-23T05:46:32;98908.53;;;19.36;61.08
27144;BME280;14672;50.250;8.312;2023-05-23T05:48:58;98915.00;;;19.19;61.55
27144;BME280;14672;50.250;8.312;2023-05-23T05:51:24;98918.72;;;19.26;61.44
27144;BME280;14672;50.250;8.312;2023-05-23T05:53:50;98913.75;;;19.26;61.32
27144;BME280;14672;50.250;8.312;2023-05-23T05:56:15;98918.75;;;19.37;61.14
27144;BME280;14672;50.250;8.312;2023-05-23T05:58:41;98905.41;;;19.39;60.95
27144;BME280;14672;50.250;8.312;2023-05-23T06:01:07;98915.00;;;19.14;61.85
27144;BME280;14672;50.250;8.312;2023-05-23T06:03:33;98928.66;;;19.24;62.23
27144;BME280;14672;50.250;8.312;2023-05-23T06:05:59;98919.50;;;19.26;61.79
27144;BME280;14672;50.250;8.312;2023-05-23T06:08:25;98925.53;;;19.28;61.76
27144;BME280;14672;50.250;8.312;2023-05-23T06:10:51;98926.09;;;19.38;61.53
27144;BME280;14672;50.250;8.312;2023-05-23T06:13:16;98934.00;;;19.43;62.00
27144;BME280;14672;50.250;8.312;2023-05-23T06:15:42;98926.41;;;19.45;62.76
27144;BME280;14672;50.250;8.312;2023-05-23T06:18:08;98925.34;;;19.43;62.50
27144;BME280;14672;50.250;8.312;2023-05-23T06:20:34;98924.25;;;19.35;62.64
27144;BME280;14672;50.250;8.312;2023-05-23T06:23:00;98922.16;;;19.35;62.87
27144;BME280;14672;50.250;8.312;2023-05-23T06:25:26;98927.91;;;19.35;62.84
27144;BME280;14672;50.250;8.312;2023-05-23T06:27:52;98934.66;;;19.21;64.02
27144;BME280;14672;50.250;8.312;2023-05-23T06:30:18;98924.53;;;19.37;63.52
27144;BME280;14672;50.250;8.312;2023-05-23T06:32:43;98926.59;;;19.36;63.68
27144;BME280;14672;50.250;8.312;2023-05-23T06:35:09;98930.03;;;19.40;63.29
27144;BME280;14672;50.250;8.312;2023-05-23T06:37:35;98929.19;;;19.29;63.94
27144;BME280;14672;50.250;8.312;2023-05-23T06:40:01;98927.16;;;19.35;63.54
27144;BME280;14672;50.250;8.312;2023-05-23T06:42:27;98935.00;;;19.34;63.61
27144;BME280;14672;50.250;8.312;2023-05-23T06:44:52;98929.81;;;19.44;63.98
27144;BME280;14672;50.250;8.312;2023-05-23T06:47:18;98942.06;;;19.33;64.50
27144;BME280;14672;50.250;8.312;2023-05-23T06:49:44;98923.72;;;19.36;64.05
27144;BME280;14672;50.250;8.312;2023-05-23T06:52:10;98925.13;;;19.46;63.26
27144;BME280;14672;50.250;8.312;2023-05-23T06:54:35;98912.03;;;19.56;63.30
27144;BME280;14672;50.250;8.312;2023-05-23T06:57:01;98928.03;;;19.57;63.82
27144;BME280;14672;50.250;8.312;2023-05-23T06:59:27;98923.03;;;19.52;63.97
27144;BME280;14672;50.250;8.312;2023-05-23T07:01:53;98916.81;;;19.71;63.86
27144;BME280;14672;50.250;8.312;2023-05-23T07:04:18;98922.81;;;19.67;63.27
27144;BME280;14672;50.250;8.312;2023-05-23T07:06:44;98932.28;;;19.73;63.44
27144;BME280;14672;50.250;8.312;2023-05-23T07:09:12;98938.34;;;19.86;63.16
27144;BME280;14672;50.250;8.312;2023-05-23T07:11:38;98933.88;;;19.85;62.46
27144;BME280;14672;50.250;8.312;2023-05-23T07:14:05;98943.31;;;19.86;62.42
27144;BME280;14672;50.250;8.312;2023-05-23T07:16:32;98937.53;;;19.86;62.59
27144;BME280;14672;50.250;8.312;2023-05-23T07:19:01;98939.38;;;19.78;62.29
27144;BME280;14672;50.250;8.312;2023-05-23T07:21:27;98940.66;;;19.77;62.10
27144;BME280;14672;50.250;8.312;2023-05-23T07:23:53;98939.34;;;19.72;62.72
27144;BME280;14672;50.250;8.312;2023-05-23T07:26:19;98942.75;;;19.71;62.19
27144;BME280;14672;50.250;8.312;2023-05-23T07:28:45;98930.44;;;19.70;62.51
27144;BME280;14672;50.250;8.312;2023-05-23T07:31:11;98932.56;;;19.86;62.47
27144;BME280;14672;50.250;8.312;2023-05-23T07:33:37;98936.50;;;20.00;62.35
27144;BME280;14672;50.250;8.312;2023-05-23T07:36:03;98931.00;;;19.96;62.46
27144;BME280;14672;50.250;8.312;2023-05-23T07:38:29;98928.63;;;19.95;62.21
27144;BME280;14672;50.250;8.312;2023-05-23T07:40:55;98923.66;;;19.95;62.41
27144;BME280;14672;50.250;8.312;2023-05-23T07:43:21;98927.06;;;19.94;62.07
27144;BME280;14672;50.250;8.312;2023-05-23T07:45:47;98924.97;;;19.89;62.86
27144;BME280;14672;50.250;8.312;2023-05-23T07:48:12;98932.34;;;20.12;62.47
27144;BME280;14672;50.250;8.312;2023-05-23T07:50:41;98935.22;;;20.17;62.60
27144;BME280;14672;50.250;8.312;2023-05-23T07:53:07;98932.84;;;20.05;62.03
27144;BME280;14672;50.250;8.312;2023-05-23T07:55:32;98940.94;;;19.95;62.62
27144;BME280;14672;50.250;8.312;2023-05-23T07:57:58;98945.16;;;20.11;62.49
27144;BME280;14672;50.250;8.312;2023-05-23T08:00:24;98949.38;;;20.10;62.21
27144;BME280;14672;50.250;8.312;2023-05-23T08:02:50;98956.97;;;20.02;61.93
27144;BME280;14672;50.250;8.312;2023-05-23T08:05:16;98952.75;;;20.03;62.03
27144;BME280;14672;50.250;8.312;2023-05-23T08:07:43;98944.31;;;19.72;63.04
27144;BME280;14672;50.250;8.312;2023-05-23T08:10:09;98954.31;;;19.82;63.29
27144;BME280;14672;50.250;8.312;2023-05-23T08:12:35;98965.84;;;19.87;62.82
27144;BME280;14672;50.250;8.312;2023-05-23T08:15:01;98960.13;;;20.04;61.91
27144;BME280;14672;50.250;8.312;2023-05-23T08:17:28;98952.50;;;20.01;62.51
27144;BME280;14672;50.250;8.312;2023-05-23T08:19:53;98963.03;;;20.21;62.22
27144;BME280;14672;50.250;8.312;2023-05-23T08:22:19;98968.53;;;20.13;62.20
27144;BME280;14672;50.250;8.312;2023-05-23T08:24:45;98966.97;;;20.17;62.20
27144;BME280;14672;50.250;8.312;2023-05-23T08:27:11;98969.06;;;20.28;62.34
27144;BME280;14672;50.250;8.312;2023-05-23T08:29:40;98965.97;;;20.37;62.00
27144;BME280;14672;50.250;8.312;2023-05-23T08:32:07;98961.75;;;20.44;61.89
27144;BME280;14672;50.250;8.312;2023-05-23T08:34:33;98968.03;;;20.31;61.64
27144;BME280;14672;50.250;8.312;2023-05-23T08:36:59;98971.72;;;20.32;61.68
27144;BME280;14672;50.250;8.312;2023-05-23T08:39:25;98967.28;;;20.42;61.15
27144;BME280;14672;50.250;8.312;2023-05-23T08:41:51;98970.94;;;20.31;60.72
27144;BME280;14672;50.250;8.312;2023-05-23T08:44:17;98974.59;;;20.26;61.06
27144;BME280;14672;50.250;8.312;2023-05-23T08:46:46;98981.13;;;20.21;61.64
27144;BME280;14672;50.250;8.312;2023-05-23T08:49:16;98984.78;;;20.16;61.43
27144;BME280;14672;50.250;8.312;2023-05-23T08:51:43;98988.13;;;19.81;62.13
27144;BME280;14672;50.250;8.312;2023-05-23T08:54:10;98981.13;;;20.10;61.35
27144;BME280;14672;50.250;8.312;2023-05-23T08:56:40;98976.38;;;20.12;61.55
27144;BME280;14672;50.250;8.312;2023-05-23T08:59:08;98986.56;;;19.86;62.78
27144;BME280;14672;50.250;8.312;2023-05-23T09:01:37;98992.03;;;19.84;62.78
27144;BME280;14672;50.250;8.312;2023-05-23T09:04:05;98978.22;;;20.15;62.26
27144;BME280;14672;50.250;8.312;2023-05-23T09:06:31;98981.69;;;20.31;62.51
27144;BME280;14672;50.250;8.312;2023-05-23T09:08:57;98981.69;;;20.47;62.18
27144;BME280;14672;50.250;8.312;2023-05-23T09:11:23;98989.31;;;20.45;60.84
27144;BME280;14672;50.250;8.312;2023-05-23T09:13:49;98986.69;;;20.47;59.97
27144;BME280;14672;50.250;8.312;2023-05-23T09:16:16;98981.69;;;20.64;59.70
27144;BME280;14672;50.250;8.312;2023-05-23T09:18:43;98984.84;;;20.77;60.48
27144;BME280;14672;50.250;8.312;2023-05-23T09:21:11;98980.63;;;20.95;60.00
27144;BME280;14672;50.250;8.312;2023-05-23T09:23:40;98980.09;;;20.91;60.00
27144;BME280;14672;50.250;8.312;2023-05-23T09:26:10;98979.56;;;20.98;59.77
27144;BME280;14672;50.250;8.312;2023-05-23T09:28:40;98975.91;;;20.92;58.05
27144;BME280;14672;50.250;8.312;2023-05-23T09:31:07;98974.81;;;21.06;58.04
27144;BME280;14672;50.250;8.312;2023-05-23T09:33:45;98981.16;;;20.88;58.87
27144;BME280;14672;50.250;8.312;2023-05-23T09:36:16;98981.91;;;20.99;57.92
27144;BME280;14672;50.250;8.312;2023-05-23T09:38:44;98984.53;;;21.14;58.53
27144;BME280;14672;50.250;8.312;2023-05-23T09:41:11;98983.22;;;21.21;58.29
27144;BME280;14672;50.250;8.312;2023-05-23T09:43:50;98990.88;;;21.13;58.90
27144;BME280;14672;50.250;8.312;2023-05-23T09:46:18;98984.53;;;21.14;58.53
27144;BME280;14672;50.250;8.312;2023-05-23T09:48:50;98997.69;;;21.09;58.04
27144;BME280;14672;50.250;8.312;2023-05-23T09:51:22;98989.28;;;20.78;58.16
27144;BME280;14672;50.250;8.312;2023-05-23T09:53:48;98988.75;;;20.96;58.26
27144;BME280;14672;50.250;8.312;2023-05-23T09:56:18;98990.84;;;21.07;57.50
27144;BME280;14672;50.250;8.312;2023-05-23T09:58:47;98998.47;;;21.04;57.69
27144;BME280;14672;50.250;8.312;2023-05-23T10:01:14;98989.00;;;21.04;58.14
27144;BME280;14672;50.250;8.312;2023-05-23T10:03:50;98990.34;;;20.86;59.32
27144;BME280;14672;50.250;8.312;2023-05-23T10:06:24;98988.78;;;20.85;59.04
27144;BME280;14672;50.250;8.312;2023-05-23T10:09:03;98991.13;;;20.87;58.37
27144;BME280;14672;50.250;8.312;2023-05-23T10:14:01;99003.19;;;20.91;58.37
27144;BME280;14672;50.250;8.312;2023-05-23T10:17:06;99010.84;;;20.66;59.16
27144;BME280;14672;50.250;8.312;2023-05-23T10:20:13;99023.16;;;20.50;59.54
27144;BME280;14672;50.250;8.312;2023-05-23T10:22:41;99019.50;;;20.49;59.52
27144;BME280;14672;50.250;8.312;2023-05-23T10:25:08;99021.03;;;20.50;59.97
27144;BME280;14672;50.250;8.312;2023-05-23T10:27:39;99023.41;;;20.35;59.97
27144;BME280;14672;50.250;8.312;2023-05-23T10:30:07;99020.00;;;20.42;59.75
27144;BME280;14672;50.250;8.312;2023-05-23T10:32:34;99022.09;;;20.47;60.14
27144;BME280;14672;50.250;8.312;2023-05-23T10:43:39;99024.22;;;20.52;59.49
27144;BME280;14672;50.250;8.312;2023-05-23T10:45:54;99021.31;;;20.75;59.55
27144;BME280;14672;50.250;8.312;2023-05-23T10:48:39;99020.81;;;20.59;59.85
27144;BME280;14672;50.250;8.312;2023-05-23T10:51:09;99039.47;;;20.70;59.54
27144;BME280;14672;50.250;8.312;2023-05-23T10:53:44;99035.78;;;20.58;59.22
27144;BME280;14672;50.250;8.312;2023-05-23T10:56:20;99037.34;;;20.65;59.09
27144;BME280;14672;50.250;8.312;2023-05-23T10:58:55;99045.72;;;20.40;59.16
27144;BME280;14672;50.250;8.312;2023-05-23T11:01:23;99044.44;;;20.58;59.16
27144;BME280;14672;50.250;8.312;2023-05-23T11:03:51;99054.38;;;20.40;59.63
27144;BME280;14672;50.250;8.312;2023-05-23T11:09:13;99053.88;;;20.53;59.17
27144;BME280;14672;50.250;8.312;2023-05-23T11:12:02;99054.09;;;20.38;59.15
27144;BME280;14672;50.250;8.312;2023-05-23T11:20:00;99058.34;;;20.65;58.93
27144;BME280;14672;50.250;8.312;2023-05-23T11:22:30;99059.13;;;20.82;58.11
27144;BME280;14672;50.250;8.312;2023-05-23T11:24:58;99056.50;;;20.68;58.47
27144;BME280;14672;50.250;8.312;2023-05-23T11:27:32;99054.94;;;20.89;57.65
27144;BME280;14672;50.250;8.312;2023-05-23T11:30:11;99057.81;;;20.89;57.78
27144;BME280;14672;50.250;8.312;2023-05-23T11:32:52;99054.69;;;20.98;57.80
27144;BME280;14672;50.250;8.312;2023-05-23T11:35:18;99053.88;;;20.86;57.72
27144;BME280;14672;50.250;8.312;2023-05-23T11:37:45;99052.03;;;21.00;57.56
27144;BME280;14672;50.250;8.312;2023-05-23T11:43:13;99063.09;;;21.01;57.36
27144;BME280;14672;50.250;8.312;2023-05-23T11:45:43;99063.06;;;20.96;56.71
27144;BME280;14672;50.250;8.312;2023-05-23T11:48:15;99056.00;;;21.14;56.71
27144;BME280;14672;50.250;8.312;2023-05-23T11:53:14;99059.41;;;21.29;57.16
27144;BME280;14672;50.250;8.312;2023-05-23T11:55:56;99061.25;;;21.15;56.53
27144;BME280;14672;50.250;8.312;2023-05-23T11:58:37;99057.31;;;21.29;56.04
27144;BME280;14672;50.250;8.312;2023-05-23T12:01:09;99074.34;;;21.44;55.76
27144;BME280;14672;50.250;8.312;2023-05-23T12:03:48;99071.75;;;21.24;55.81
27144;BME280;14672;50.250;8.312;2023-05-23T12:06:16;99068.84;;;21.29;55.42
27144;BME280;14672;50.250;8.312;2023-05-23T12:08:43;99064.88;;;21.43;55.38
27144;BME280;14672;50.250;8.312;2023-05-23T12:11:09;99074.06;;;21.47;54.91
27144;BME280;14672;50.250;8.312;2023-05-23T12:13:35;99070.41;;;21.41;54.45
27144;BME280;14672;50.250;8.312;2023-05-23T12:16:02;99064.31;;;21.62;53.97
27144;BME280;14672;50.250;8.312;2023-05-23T12:18:32;99071.38;;;21.66;54.26
27144;BME280;14672;50.250;8.312;2023-05-23T12:21:02;99055.31;;;21.76;53.72
27144;BME280;14672;50.250;8.312;2023-05-23T12:23:31;99065.88;;;21.68;53.60
27144;BME280;14672;50.250;8.312;2023-05-23T12:25:57;99069.50;;;21.80;53.37
27144;BME280;14672;50.250;8.312;2023-05-23T12:28:40;99066.34;;;21.78;54.17
27144;BME280;14672;50.250;8.312;2023-05-23T12:31:27;99065.53;;;21.83;53.64
27144;BME280;14672;50.250;8.312;2023-05-23T12:33:52;99061.66;;;21.64;54.00
27144;BME280;14672;50.250;8.312;2023-05-23T12:36:24;99062.69;;;21.72;53.76
27144;BME280;14672;50.250;8.312;2023-05-23T12:38:51;99067.97;;;21.62;52.30
27144;BME280;14672;50.250;8.312;2023-05-23T12:41:19;99068.81;;;21.51;52.12
27144;BME280;14672;50.250;8.312;2023-05-23T12:43:51;99069.06;;;21.53;52.50
27144;BME280;14672;50.250;8.312;2023-05-23T12:46:23;99063.56;;;21.44;52.76
27144;BME280;14672;50.250;8.312;2023-05-23T12:48:49;99071.19;;;21.47;53.07
27144;BME280;14672;50.250;8.312;2023-05-23T12:51:15;99074.09;;;21.36;53.64
27144;BME280;14672;50.250;8.312;2023-05-23T12:53:41;99080.94;;;21.22;53.91
27144;BME280;14672;50.250;8.312;2023-05-23T12:56:07;99081.19;;;21.07;54.55
27144;BME280;14672;50.250;8.312;2023-05-23T12:58:33;99075.69;;;21.15;54.68
27144;BME280;14672;50.250;8.312;2023-05-23T13:01:01;99082.22;;;20.99;55.16
27144;BME280;14672;50.250;8.312;2023-05-23T13:03:28;99084.31;;;20.98;55.55
27144;BME280;14672;50.250;8.312;2023-05-23T13:05:58;99083.53;;;20.87;55.13
27144;BME280;14672;50.250;8.312;2023-05-23T13:08:25;99084.09;;;21.02;55.18
27144;BME280;14672;50.250;8.312;2023-05-23T13:10:55;99087.22;;;21.04;55.41
27144;BME280;14672;50.250;8.312;2023-05-23T13:13:22;99091.94;;;20.90;55.78
27144;BME280;14672;50.250;8.312;2023-05-23T13:15:48;99085.41;;;21.01;54.67
27144;BME280;14672;50.250;8.312;2023-05-23T13:18:14;99086.19;;;20.96;54.83
27144;BME280;14672;50.250;8.312;2023-05-23T13:20:40;99080.66;;;21.03;55.05
27144;BME280;14672;50.250;8.312;2023-05-23T13:23:07;99091.19;;;20.90;54.86
27144;BME280;14672;50.250;8.312;2023-05-23T13:25:34;99099.81;;;20.73;55.18
27144;BME280;14672;50.250;8.312;2023-05-23T13:28:00;99104.53;;;20.76;54.44
27144;BME280;14672;50.250;8.312;2023-05-23T13:30:27;99102.19;;;20.80;54.32
27144;BME280;14672;50.250;8.312;2023-05-23T13:32:53;99098.75;;;20.71;54.82